sensor_id;sensor_type;location;lat;lon;timestamp;P1;durP1;ratioP1;P2;durP2;ratioP2
34836;SDS011;21053;50.848;4.652;2023-02-24T00:01:56;33.85;;;5.50;;
34836;SDS011;21053;50.848;4.652;2023-02-24T00:07:03;33.92;;;5.70;;
34836;SDS011;21053;50.848;4.652;2023-02-24T00:09:33;35.63;;;5.03;;
34836;SDS011;21053;50.848;4.652;2023-02-24T00:14:31;32.67;;;5.32;;
34836;SDS011;21053;50.848;4.652;2023-02-24T00:17:05;33.05;;;4.80;;
34836;SDS011;21053;50.848;4.652;2023-02-24T00:22:06;44.65;;;5.70;;
34836;SDS011;21053;50.848;4.652;2023-02-24T00:24:34;29.83;;;4.90;;
34836;SDS011;21053;50.848;4.652;2023-02-24T00:27:02;35.10;;;6.03;;
34836;SDS011;21053;50.848;4.652;2023-02-24T00:29:34;43.03;;;5.40;;
34836;SDS011;21053;50.848;4.652;2023-02-24T00:34:39;27.98;;;4.25;;
34836;SDS011;21053;50.848;4.652;2023-02-24T00:37:08;38.85;;;5.13;;
34836;SDS011;21053;50.848;4.652;2023-02-24T00:39:34;47.33;;;5.05;;
34836;SDS011;21053;50.848;4.652;2023-02-24T00:42:02;32.85;;;4.43;;
34836;SDS011;21053;50.848;4.652;2023-02-24T00:44:39;35.30;;;5.43;;
34836;SDS011;21053;50.848;4.652;2023-02-24T00:47:08;37.30;;;6.15;;
34836;SDS011;21053;50.848;4.652;2023-02-24T00:49:36;49.70;;;5.10;;
34836;SDS011;21053;50.848;4.652;2023-02-24T00:52:19;37.40;;;4.88;;
34836;SDS011;21053;50.848;4.652;2023-02-24T00:54:50;48.97;;;5.80;;
34836;SDS011;21053;50.848;4.652;2023-02-24T01:00:38;30.33;;;5.18;;
34836;SDS011;21053;50.848;4.652;2023-02-24T01:03:16;32.80;;;5.78;;
34836;SDS011;21053;50.848;4.652;2023-02-24T01:08:14;39.78;;;6.20;;
34836;SDS011;21053;50.848;4.652;2023-02-24T01:13:43;42.15;;;5.90;;
34836;SDS011;21053;50.848;4.652;2023-02-24T01:16:11;40.53;;;5.68;;
34836;SDS011;21053;50.848;4.652;2023-02-24T01:21:09;41.65;;;6.20;;
34836;SDS011;21053;50.848;4.652;2023-02-24T01:28:45;50.72;;;5.88;;
34836;SDS011;21053;50.848;4.652;2023-02-24T01:31:18;43.72;;;5.20;;
34836;SDS011;21053;50.848;4.652;2023-02-24T01:33:47;27.73;;;4.45;;
34836;SDS011;21053;50.848;4.652;2023-02-24T01:36:15;32.60;;;5.82;;
34836;SDS011;21053;50.848;4.652;2023-02-24T01:38:42;33.13;;;4.53;;
34836;SDS011;21053;50.848;4.652;2023-02-24T01:41:14;45.78;;;4.75;;
34836;SDS011;21053;50.848;4.652;2023-02-24T01:55:31;44.35;;;5.45;;
34836;SDS011;21053;50.848;4.652;2023-02-24T02:01:01;46.42;;;5.75;;
34836;SDS011;21053;50.848;4.652;2023-02-24T02:03:34;46.08;;;5.55;;
34836;SDS011;21053;50.848;4.652;2023-02-24T02:06:10;45.55;;;5.18;;
34836;SDS011;21053;50.848;4.652;2023-02-24T02:08:40;39.80;;;5.95;;
34836;SDS011;21053;50.848;4.652;2023-02-24T02:11:10;44.97;;;6.00;;
34836;SDS011;21053;50.848;4.652;2023-02-24T02:24:48;39.97;;;5.70;;
34836;SDS011;21053;50.848;4.652;2023-02-24T02:36:30;31.20;;;4.28;;
34836;SDS011;21053;50.848;4.652;2023-02-24T02:39:14;40.17;;;5.03;;
34836;SDS011;21053;50.848;4.652;2023-02-24T02:45:01;32.85;;;4.82;;
34836;SDS011;21053;50.848;4.652;2023-02-24T02:47:43;39.97;;;4.93;;
34836;SDS011;21053;50.848;4.652;2023-02-24T02:50:34;26.83;;;4.05;;
34836;SDS011;21053;50.848;4.652;2023-02-24T02:58:24;39.53;;;4.57;;
34836;SDS011;21053;50.848;4.652;2023-02-24T03:00:57;39.90;;;4.78;;
34836;SDS011;21053;50.848;4.652;2023-02-24T03:03:42;40.55;;;5.60;;
34836;SDS011;21053;50.848;4.652;2023-02-24T03:06:16;28.65;;;4.57;;
34836;SDS011;21053;50.848;4.652;2023-02-24T03:08:55;27.00;;;3.83;;
34836;SDS011;21053;50.848;4.652;2023-02-24T03:11:47;46.63;;;4.75;;
34836;SDS011;21053;50.848;4.652;2023-02-24T03:14:20;32.10;;;5.07;;
34836;SDS011;21053;50.848;4.652;2023-02-24T03:16:52;50.75;;;5.00;;
34836;SDS011;21053;50.848;4.652;2023-02-24T03:19:23;28.33;;;4.93;;
34836;SDS011;21053;50.848;4.652;2023-02-24T03:22:14;40.28;;;4.93;;
34836;SDS011;21053;50.848;4.652;2023-02-24T03:24:46;35.15;;;4.10;;
34836;SDS011;21053;50.848;4.652;2023-02-24T03:27:35;26.60;;;4.40;;
34836;SDS011;21053;50.848;4.652;2023-02-24T03:30:20;37.33;;;4.80;;
34836;SDS011;21053;50.848;4.652;2023-02-24T03:33:27;25.38;;;3.90;;
34836;SDS011;21053;50.848;4.652;2023-02-24T03:36:02;27.98;;;4.45;;
34836;SDS011;21053;50.848;4.652;2023-02-24T03:41:05;37.25;;;4.28;;
34836;SDS011;21053;50.848;4.652;2023-02-24T03:43:40;40.58;;;4.38;;
34836;SDS011;21053;50.848;4.652;2023-02-24T03:48:45;30.38;;;4.28;;
34836;SDS011;21053;50.848;4.652;2023-02-24T03:53:50;42.13;;;4.55;;
34836;SDS011;21053;50.848;4.652;2023-02-24T03:59:35;29.02;;;5.05;;
34836;SDS011;21053;50.848;4.652;2023-02-24T04:02:14;35.35;;;4.70;;
34836;SDS011;21053;50.848;4.652;2023-02-24T04:08:01;32.05;;;4.10;;
34836;SDS011;21053;50.848;4.652;2023-02-24T04:10:36;31.95;;;4.72;;
34836;SDS011;21053;50.848;4.652;2023-02-24T04:13:25;33.22;;;4.43;;
34836;SDS011;21053;50.848;4.652;2023-02-24T04:16:03;36.22;;;4.70;;
34836;SDS011;21053;50.848;4.652;2023-02-24T04:19:04;27.67;;;4.18;;
34836;SDS011;21053;50.848;4.652;2023-02-24T04:21:36;26.13;;;4.20;;
34836;SDS011;21053;50.848;4.652;2023-02-24T04:24:05;25.40;;;4.05;;
34836;SDS011;21053;50.848;4.652;2023-02-24T04:26:38;28.65;;;3.42;;
34836;SDS011;21053;50.848;4.652;2023-02-24T04:29:07;19.35;;;3.67;;
34836;SDS011;21053;50.848;4.652;2023-02-24T04:34:07;27.95;;;4.72;;
34836;SDS011;21053;50.848;4.652;2023-02-24T04:36:34;38.92;;;3.63;;
34836;SDS011;21053;50.848;4.652;2023-02-24T04:39:05;33.35;;;4.35;;
34836;SDS011;21053;50.848;4.652;2023-02-24T04:41:33;22.25;;;4.10;;
34836;SDS011;21053;50.848;4.652;2023-02-24T04:44:02;19.60;;;4.15;;
34836;SDS011;21053;50.848;4.652;2023-02-24T04:46:30;33.83;;;3.65;;
34836;SDS011;21053;50.848;4.652;2023-02-24T04:48:59;31.30;;;3.50;;
34836;SDS011;21053;50.848;4.652;2023-02-24T04:51:27;17.00;;;3.35;;
34836;SDS011;21053;50.848;4.652;2023-02-24T04:53:57;28.23;;;3.72;;
34836;SDS011;21053;50.848;4.652;2023-02-24T04:56:29;28.20;;;3.88;;
34836;SDS011;21053;50.848;4.652;2023-02-24T04:58:58;25.38;;;3.95;;
34836;SDS011;21053;50.848;4.652;2023-02-24T05:01:26;21.90;;;3.75;;
34836;SDS011;21053;50.848;4.652;2023-02-24T05:06:25;21.85;;;3.28;;
34836;SDS011;21053;50.848;4.652;2023-02-24T05:08:51;35.55;;;4.55;;
34836;SDS011;21053;50.848;4.652;2023-02-24T05:11:20;34.83;;;3.60;;
34836;SDS011;21053;50.848;4.652;2023-02-24T05:16:16;24.50;;;4.43;;
34836;SDS011;21053;50.848;4.652;2023-02-24T05:18:47;15.98;;;3.20;;
34836;SDS011;21053;50.848;4.652;2023-02-24T05:21:18;27.05;;;3.70;;
34836;SDS011;21053;50.848;4.652;2023-02-24T05:24:03;26.80;;;3.13;;
34836;SDS011;21053;50.848;4.652;2023-02-24T05:26:31;29.58;;;3.95;;
34836;SDS011;21053;50.848;4.652;2023-02-24T05:29:04;37.55;;;4.05;;
34836;SDS011;21053;50.848;4.652;2023-02-24T05:31:32;23.55;;;3.22;;
34836;SDS011;21053;50.848;4.652;2023-02-24T05:34:00;28.10;;;4.72;;
34836;SDS011;21053;50.848;4.652;2023-02-24T05:36:38;22.23;;;3.75;;
34836;SDS011;21053;50.848;4.652;2023-02-24T05:39:06;23.63;;;3.10;;
34836;SDS011;21053;50.848;4.652;2023-02-24T05:41:37;22.02;;;3.95;;
34836;SDS011;21053;50.848;4.652;2023-02-24T05:44:11;20.58;;;3.47;;
34836;SDS011;21053;50.848;4.652;2023-02-24T05:46:46;21.77;;;3.28;;
34836;SDS011;21053;50.848;4.652;2023-02-24T05:52:11;30.95;;;4.28;;
34836;SDS011;21053;50.848;4.652;2023-02-24T05:54:42;24.50;;;3.25;;
34836;SDS011;21053;50.848;4.652;2023-02-24T05:57:10;15.50;;;3.15;;
34836;SDS011;21053;50.848;4.652;2023-02-24T05:59:51;22.52;;;3.35;;
34836;SDS011;21053;50.848;4.652;2023-02-24T06:02:21;12.13;;;3.03;;
34836;SDS011;21053;50.848;4.652;2023-02-24T06:04:51;16.92;;;3.35;;
34836;SDS011;21053;50.848;4.652;2023-02-24T06:07:27;19.60;;;3.28;;
34836;SDS011;21053;50.848;4.652;2023-02-24T06:10:00;18.20;;;3.47;;
34836;SDS011;21053;50.848;4.652;2023-02-24T06:12:29;19.55;;;3.13;;
34836;SDS011;21053;50.848;4.652;2023-02-24T06:15:01;34.58;;;3.45;;
34836;SDS011;21053;50.848;4.652;2023-02-24T06:20:00;34.35;;;8.05;;
34836;SDS011;21053;50.848;4.652;2023-02-24T06:22:27;33.08;;;7.95;;
34836;SDS011;21053;50.848;4.652;2023-02-24T06:24:54;20.85;;;4.05;;
34836;SDS011;21053;50.848;4.652;2023-02-24T06:27:21;22.55;;;3.63;;
34836;SDS011;21053;50.848;4.652;2023-02-24T06:29:50;26.40;;;4.80;;
34836;SDS011;21053;50.848;4.652;2023-02-24T06:32:21;20.08;;;3.90;;
34836;SDS011;21053;50.848;4.652;2023-02-24T06:34:50;25.42;;;4.68;;
34836;SDS011;21053;50.848;4.652;2023-02-24T06:37:19;24.85;;;4.10;;
34836;SDS011;21053;50.848;4.652;2023-02-24T06:39:52;20.00;;;3.13;;
34836;SDS011;21053;50.848;4.652;2023-02-24T06:42:21;19.88;;;2.80;;
34836;SDS011;21053;50.848;4.652;2023-02-24T06:44:48;16.92;;;3.30;;
34836;SDS011;21053;50.848;4.652;2023-02-24T06:47:16;21.63;;;3.15;;
34836;SDS011;21053;50.848;4.652;2023-02-24T06:52:12;25.73;;;3.65;;
34836;SDS011;21053;50.848;4.652;2023-02-24T06:54:46;19.60;;;3.25;;
34836;SDS011;21053;50.848;4.652;2023-02-24T06:57:18;18.80;;;3.45;;
34836;SDS011;21053;50.848;4.652;2023-02-24T06:59:47;22.58;;;3.38;;
34836;SDS011;21053;50.848;4.652;2023-02-24T07:02:14;21.23;;;4.93;;
34836;SDS011;21053;50.848;4.652;2023-02-24T07:04:44;15.88;;;3.38;;
34836;SDS011;21053;50.848;4.652;2023-02-24T07:07:14;15.18;;;3.05;;
34836;SDS011;21053;50.848;4.652;2023-02-24T07:09:43;18.67;;;3.53;;
34836;SDS011;21053;50.848;4.652;2023-02-24T07:12:11;27.92;;;4.30;;
34836;SDS011;21053;50.848;4.652;2023-02-24T07:14:37;24.00;;;4.50;;
34836;SDS011;21053;50.848;4.652;2023-02-24T07:17:05;19.90;;;3.25;;
34836;SDS011;21053;50.848;4.652;2023-02-24T07:19:32;16.83;;;3.33;;
34836;SDS011;21053;50.848;4.652;2023-02-24T07:22:00;19.20;;;3.72;;
34836;SDS011;21053;50.848;4.652;2023-02-24T07:24:33;23.05;;;3.38;;
34836;SDS011;21053;50.848;4.652;2023-02-24T07:27:04;19.60;;;4.00;;
34836;SDS011;21053;50.848;4.652;2023-02-24T07:29:33;17.13;;;3.47;;
34836;SDS011;21053;50.848;4.652;2023-02-24T07:32:06;23.45;;;3.78;;
34836;SDS011;21053;50.848;4.652;2023-02-24T07:34:36;19.92;;;4.05;;
34836;SDS011;21053;50.848;4.652;2023-02-24T07:37:11;14.50;;;2.92;;
34836;SDS011;21053;50.848;4.652;2023-02-24T07:39:45;18.35;;;3.83;;
34836;SDS011;21053;50.848;4.652;2023-02-24T07:42:14;18.65;;;4.03;;
34836;SDS011;21053;50.848;4.652;2023-02-24T07:44:42;24.27;;;4.35;;
34836;SDS011;21053;50.848;4.652;2023-02-24T07:47:13;29.15;;;4.43;;
34836;SDS011;21053;50.848;4.652;2023-02-24T07:49:39;24.63;;;3.55;;
34836;SDS011;21053;50.848;4.652;2023-02-24T07:52:08;33.03;;;5.18;;
34836;SDS011;21053;50.848;4.652;2023-02-24T07:54:38;25.65;;;4.00;;
34836;SDS011;21053;50.848;4.652;2023-02-24T07:57:06;35.38;;;5.03;;
34836;SDS011;21053;50.848;4.652;2023-02-24T07:59:40;24.10;;;4.05;;
34836;SDS011;21053;50.848;4.652;2023-02-24T08:07:15;35.45;;;5.07;;
34836;SDS011;21053;50.848;4.652;2023-02-24T08:09:42;30.02;;;4.57;;
34836;SDS011;21053;50.848;4.652;2023-02-24T08:12:14;29.70;;;5.22;;
34836;SDS011;21053;50.848;4.652;2023-02-24T08:14:45;30.92;;;5.00;;
34836;SDS011;21053;50.848;4.652;2023-02-24T08:17:20;42.28;;;5.40;;
34836;SDS011;21053;50.848;4.652;2023-02-24T08:19:54;28.80;;;6.13;;
34836;SDS011;21053;50.848;4.652;2023-02-24T08:22:44;34.47;;;5.25;;
34836;SDS011;21053;50.848;4.652;2023-02-24T08:25:16;41.45;;;5.10;;
34836;SDS011;21053;50.848;4.652;2023-02-24T08:27:48;21.35;;;5.25;;
34836;SDS011;21053;50.848;4.652;2023-02-24T08:30:23;42.50;;;5.70;;
34836;SDS011;21053;50.848;4.652;2023-02-24T08:32:54;28.70;;;5.45;;
34836;SDS011;21053;50.848;4.652;2023-02-24T08:35:28;32.83;;;4.63;;
34836;SDS011;21053;50.848;4.652;2023-02-24T08:40:36;34.60;;;5.13;;
34836;SDS011;21053;50.848;4.652;2023-02-24T08:43:17;36.92;;;5.50;;
34836;SDS011;21053;50.848;4.652;2023-02-24T08:48:52;27.05;;;4.90;;
34836;SDS011;21053;50.848;4.652;2023-02-24T08:51:32;37.70;;;4.80;;
34836;SDS011;21053;50.848;4.652;2023-02-24T08:54:07;28.02;;;4.95;;
34836;SDS011;21053;50.848;4.652;2023-02-24T08:56:43;33.35;;;4.78;;
34836;SDS011;21053;50.848;4.652;2023-02-24T08:59:20;24.33;;;4.57;;
34836;SDS011;21053;50.848;4.652;2023-02-24T09:02:06;28.95;;;4.80;;
34836;SDS011;21053;50.848;4.652;2023-02-24T09:04:45;27.58;;;5.05;;
34836;SDS011;21053;50.848;4.652;2023-02-24T09:07:20;19.38;;;5.00;;
34836;SDS011;21053;50.848;4.652;2023-02-24T09:09:50;36.45;;;5.53;;
34836;SDS011;21053;50.848;4.652;2023-02-24T09:12:23;29.05;;;5.25;;
34836;SDS011;21053;50.848;4.652;2023-02-24T09:14:52;19.10;;;3.90;;
34836;SDS011;21053;50.848;4.652;2023-02-24T09:17:27;21.27;;;3.72;;
34836;SDS011;21053;50.848;4.652;2023-02-24T09:20:12;30.45;;;4.22;;
34836;SDS011;21053;50.848;4.652;2023-02-24T09:22:55;29.13;;;4.03;;
34836;SDS011;21053;50.848;4.652;2023-02-24T09:25:29;36.85;;;4.47;;
34836;SDS011;21053;50.848;4.652;2023-02-24T09:30:36;18.15;;;3.80;;
34836;SDS011;21053;50.848;4.652;2023-02-24T09:36:01;17.92;;;2.95;;
34836;SDS011;21053;50.848;4.652;2023-02-24T09:38:43;18.58;;;2.80;;
34836;SDS011;21053;50.848;4.652;2023-02-24T09:48:02;20.25;;;2.90;;
34836;SDS011;21053;50.848;4.652;2023-02-24T09:50:47;18.30;;;2.60;;
34836;SDS011;21053;50.848;4.652;2023-02-24T09:53:27;20.23;;;2.78;;
34836;SDS011;21053;50.848;4.652;2023-02-24T09:56:04;23.48;;;2.63;;
34836;SDS011;21053;50.848;4.652;2023-02-24T10:01:59;16.45;;;2.90;;
34836;SDS011;21053;50.848;4.652;2023-02-24T10:15:56;18.05;;;3.15;;
34836;SDS011;21053;50.848;4.652;2023-02-24T10:21:23;20.58;;;4.00;;
34836;SDS011;21053;50.848;4.652;2023-02-24T10:24:23;15.63;;;3.40;;
34836;SDS011;21053;50.848;4.652;2023-02-24T10:30:29;19.67;;;3.88;;
34836;SDS011;21053;50.848;4.652;2023-02-24T10:33:12;15.82;;;3.13;;
34836;SDS011;21053;50.848;4.652;2023-02-24T10:36:10;32.83;;;4.30;;
34836;SDS011;21053;50.848;4.652;2023-02-24T10:41:10;19.35;;;3.40;;
34836;SDS011;21053;50.848;4.652;2023-02-24T10:43:40;17.85;;;3.80;;
34836;SDS011;21053;50.848;4.652;2023-02-24T10:48:59;20.63;;;3.42;;
34836;SDS011;21053;50.848;4.652;2023-02-24T10:51:36;23.33;;;3.83;;
34836;SDS011;21053;50.848;4.652;2023-02-24T10:54:23;23.95;;;3.80;;
34836;SDS011;21053;50.848;4.652;2023-02-24T10:57:09;17.50;;;4.35;;
34836;SDS011;21053;50.848;4.652;2023-02-24T11:03:06;18.00;;;3.72;;
34836;SDS011;21053;50.848;4.652;2023-02-24T11:05:47;13.75;;;3.75;;
34836;SDS011;21053;50.848;4.652;2023-02-24T11:08:31;18.63;;;3.95;;
34836;SDS011;21053;50.848;4.652;2023-02-24T11:11:23;28.65;;;3.90;;
34836;SDS011;21053;50.848;4.652;2023-02-24T11:14:01;15.38;;;3.72;;
34836;SDS011;21053;50.848;4.652;2023-02-24T11:16:49;15.85;;;3.38;;
34836;SDS011;21053;50.848;4.652;2023-02-24T11:19:46;15.82;;;3.80;;
34836;SDS011;21053;50.848;4.652;2023-02-24T11:22:24;19.80;;;4.20;;
34836;SDS011;21053;50.848;4.652;2023-02-24T11:24:59;18.50;;;5.15;;
34836;SDS011;21053;50.848;4.652;2023-02-24T11:41:29;18.83;;;3.38;;
34836;SDS011;21053;50.848;4.652;2023-02-24T11:44:03;22.67;;;3.60;;
34836;SDS011;21053;50.848;4.652;2023-02-24T11:47:02;19.70;;;4.05;;
34836;SDS011;21053;50.848;4.652;2023-02-24T11:49:45;19.25;;;3.67;;
34836;SDS011;21053;50.848;4.652;2023-02-24T11:52:19;17.75;;;3.70;;
34836;SDS011;21053;50.848;4.652;2023-02-24T11:54:57;14.68;;;3.80;;
34836;SDS011;21053;50.848;4.652;2023-02-24T12:02:09;19.48;;;4.32;;
34836;SDS011;21053;50.848;4.652;2023-02-24T12:04:54;17.85;;;3.58;;
34836;SDS011;21053;50.848;4.652;2023-02-24T12:07:44;17.83;;;4.18;;
34836;SDS011;21053;50.848;4.652;2023-02-24T12:21:22;17.77;;;4.50;;
34836;SDS011;21053;50.848;4.652;2023-02-24T12:23:57;14.55;;;3.70;;
34836;SDS011;21053;50.848;4.652;2023-02-24T12:40:21;19.33;;;3.95;;
34836;SDS011;21053;50.848;4.652;2023-02-24T12:51:53;14.00;;;4.07;;
34836;SDS011;21053;50.848;4.652;2023-02-24T12:57:45;19.27;;;3.90;;
34836;SDS011;21053;50.848;4.652;2023-02-24T13:02:58;15.95;;;4.13;;
34836;SDS011;21053;50.848;4.652;2023-02-24T13:05:52;19.50;;;3.58;;
34836;SDS011;21053;50.848;4.652;2023-02-24T13:14:16;27.98;;;4.85;;
34836;SDS011;21053;50.848;4.652;2023-02-24T13:16:46;13.35;;;3.72;;
34836;SDS011;21053;50.848;4.652;2023-02-24T13:24:38;20.02;;;4.55;;
34836;SDS011;21053;50.848;4.652;2023-02-24T13:29:58;17.63;;;4.23;;
34836;SDS011;21053;50.848;4.652;2023-02-24T13:32:34;25.60;;;4.35;;
34836;SDS011;21053;50.848;4.652;2023-02-24T13:35:27;16.08;;;5.35;;
34836;SDS011;21053;50.848;4.652;2023-02-24T13:37:50;18.45;;;4.25;;
34836;SDS011;21053;50.848;4.652;2023-02-24T13:42:59;18.92;;;5.07;;
34836;SDS011;21053;50.848;4.652;2023-02-24T13:45:36;18.73;;;5.35;;
34836;SDS011;21053;50.848;4.652;2023-02-24T13:48:17;19.33;;;4.60;;
34836;SDS011;21053;50.848;4.652;2023-02-24T13:54:19;31.95;;;5.60;;
34836;SDS011;21053;50.848;4.652;2023-02-24T13:56:54;21.60;;;5.35;;
34836;SDS011;21053;50.848;4.652;2023-02-24T14:04:47;20.17;;;6.38;;
34836;SDS011;21053;50.848;4.652;2023-02-24T14:07:20;27.17;;;7.38;;
34836;SDS011;21053;50.848;4.652;2023-02-24T14:09:58;16.63;;;7.05;;
34836;SDS011;21053;50.848;4.652;2023-02-24T14:12:35;16.92;;;6.45;;
34836;SDS011;21053;50.848;4.652;2023-02-24T14:15:04;22.33;;;10.38;;
34836;SDS011;21053;50.848;4.652;2023-02-24T14:17:37;23.67;;;6.20;;
34836;SDS011;21053;50.848;4.652;2023-02-24T14:22:42;27.17;;;7.80;;
34836;SDS011;21053;50.848;4.652;2023-02-24T14:25:11;25.42;;;9.10;;
34836;SDS011;21053;50.848;4.652;2023-02-24T14:27:38;31.85;;;9.18;;
34836;SDS011;21053;50.848;4.652;2023-02-24T14:30:05;32.45;;;10.80;;
34836;SDS011;21053;50.848;4.652;2023-02-24T14:32:33;21.90;;;6.47;;
34836;SDS011;21053;50.848;4.652;2023-02-24T14:35:00;28.48;;;8.07;;
34836;SDS011;21053;50.848;4.652;2023-02-24T14:37:27;24.48;;;8.65;;
34836;SDS011;21053;50.848;4.652;2023-02-24T14:39:57;24.35;;;8.40;;
34836;SDS011;21053;50.848;4.652;2023-02-24T14:42:26;30.17;;;7.63;;
34836;SDS011;21053;50.848;4.652;2023-02-24T14:44:57;28.70;;;9.15;;
34836;SDS011;21053;50.848;4.652;2023-02-24T14:47:27;26.63;;;9.75;;
34836;SDS011;21053;50.848;4.652;2023-02-24T14:49:57;31.92;;;9.02;;
34836;SDS011;21053;50.848;4.652;2023-02-24T14:53:11;21.48;;;9.20;;
34836;SDS011;21053;50.848;4.652;2023-02-24T14:55:21;27.17;;;8.90;;
34836;SDS011;21053;50.848;4.652;2023-02-24T15:00:54;23.85;;;9.07;;
34836;SDS011;21053;50.848;4.652;2023-02-24T15:03:26;29.10;;;9.68;;
34836;SDS011;21053;50.848;4.652;2023-02-24T15:06:04;29.17;;;9.27;;
34836;SDS011;21053;50.848;4.652;2023-02-24T15:08:41;21.45;;;9.55;;
34836;SDS011;21053;50.848;4.652;2023-02-24T15:13:49;24.13;;;8.90;;
34836;SDS011;21053;50.848;4.652;2023-02-24T15:16:25;24.85;;;11.48;;
34836;SDS011;21053;50.848;4.652;2023-02-24T15:19:02;30.35;;;16.70;;
34836;SDS011;21053;50.848;4.652;2023-02-24T15:24:19;25.48;;;9.40;;
34836;SDS011;21053;50.848;4.652;2023-02-24T15:26:55;21.02;;;9.57;;
34836;SDS011;21053;50.848;4.652;2023-02-24T15:29:44;24.10;;;8.68;;
34836;SDS011;21053;50.848;4.652;2023-02-24T15:32:57;53.95;;;23.10;;
34836;SDS011;21053;50.848;4.652;2023-02-24T15:35:27;19.90;;;9.02;;
34836;SDS011;21053;50.848;4.652;2023-02-24T15:37:55;26.63;;;12.95;;
34836;SDS011;21053;50.848;4.652;2023-02-24T15:40:24;28.73;;;11.18;;
34836;SDS011;21053;50.848;4.652;2023-02-24T15:42:57;26.40;;;10.98;;
34836;SDS011;21053;50.848;4.652;2023-02-24T15:45:31;30.88;;;13.68;;
34836;SDS011;21053;50.848;4.652;2023-02-24T15:48:01;24.50;;;10.15;;
34836;SDS011;21053;50.848;4.652;2023-02-24T15:50:29;27.60;;;10.48;;
34836;SDS011;21053;50.848;4.652;2023-02-24T15:52:57;23.90;;;10.73;;
34836;SDS011;21053;50.848;4.652;2023-02-24T15:57:58;28.23;;;10.63;;
34836;SDS011;21053;50.848;4.652;2023-02-24T16:00:29;24.60;;;11.48;;
34836;SDS011;21053;50.848;4.652;2023-02-24T16:02:55;26.65;;;12.55;;
34836;SDS011;21053;50.848;4.652;2023-02-24T16:05:23;25.75;;;13.43;;
34836;SDS011;21053;50.848;4.652;2023-02-24T16:07:50;24.40;;;11.85;;
34836;SDS011;21053;50.848;4.652;2023-02-24T16:10:20;29.30;;;12.85;;
34836;SDS011;21053;50.848;4.652;2023-02-24T16:12:51;34.85;;;13.48;;
34836;SDS011;21053;50.848;4.652;2023-02-24T16:15:24;30.80;;;12.45;;
34836;SDS011;21053;50.848;4.652;2023-02-24T16:17:53;29.92;;;12.95;;
34836;SDS011;21053;50.848;4.652;2023-02-24T16:20:21;26.52;;;12.73;;
34836;SDS011;21053;50.848;4.652;2023-02-24T16:22:54;29.20;;;13.32;;
34836;SDS011;21053;50.848;4.652;2023-02-24T16:25:29;28.98;;;12.45;;
34836;SDS011;21053;50.848;4.652;2023-02-24T16:28:00;35.40;;;12.25;;
34836;SDS011;21053;50.848;4.652;2023-02-24T16:30:27;29.27;;;12.07;;
34836;SDS011;21053;50.848;4.652;2023-02-24T16:32:57;23.08;;;12.20;;
34836;SDS011;21053;50.848;4.652;2023-02-24T16:35:26;46.53;;;18.48;;
34836;SDS011;21053;50.848;4.652;2023-02-24T16:37:53;29.33;;;12.75;;
34836;SDS011;21053;50.848;4.652;2023-02-24T16:40:26;32.58;;;12.43;;
34836;SDS011;21053;50.848;4.652;2023-02-24T16:42:57;30.67;;;13.40;;
34836;SDS011;21053;50.848;4.652;2023-02-24T16:45:26;44.10;;;15.00;;
34836;SDS011;21053;50.848;4.652;2023-02-24T16:47:53;30.67;;;13.75;;
34836;SDS011;21053;50.848;4.652;2023-02-24T16:53:02;38.13;;;15.02;;
34836;SDS011;21053;50.848;4.652;2023-02-24T16:55:34;38.58;;;14.82;;
34836;SDS011;21053;50.848;4.652;2023-02-24T16:58:00;31.52;;;15.63;;
34836;SDS011;21053;50.848;4.652;2023-02-24T17:00:26;34.03;;;14.98;;
34836;SDS011;21053;50.848;4.652;2023-02-24T17:05:24;45.83;;;14.35;;
34836;SDS011;21053;50.848;4.652;2023-02-24T17:07:54;37.30;;;10.52;;
34836;SDS011;21053;50.848;4.652;2023-02-24T17:12:50;25.42;;;8.75;;
34836;SDS011;21053;50.848;4.652;2023-02-24T17:15:18;20.10;;;7.70;;
34836;SDS011;21053;50.848;4.652;2023-02-24T17:17:48;28.25;;;7.68;;
34836;SDS011;21053;50.848;4.652;2023-02-24T17:20:15;22.67;;;7.85;;
34836;SDS011;21053;50.848;4.652;2023-02-24T17:22:45;26.27;;;9.55;;
34836;SDS011;21053;50.848;4.652;2023-02-24T17:25:16;31.33;;;10.32;;
34836;SDS011;21053;50.848;4.652;2023-02-24T17:27:47;33.83;;;10.43;;
34836;SDS011;21053;50.848;4.652;2023-02-24T17:30:18;29.92;;;10.05;;
34836;SDS011;21053;50.848;4.652;2023-02-24T17:32:54;30.48;;;10.13;;
34836;SDS011;21053;50.848;4.652;2023-02-24T17:35:23;26.40;;;10.05;;
34836;SDS011;21053;50.848;4.652;2023-02-24T17:37:53;29.90;;;9.82;;
34836;SDS011;21053;50.848;4.652;2023-02-24T17:41:58;25.13;;;7.15;;
34836;SDS011;21053;50.848;4.652;2023-02-24T17:44:27;25.45;;;7.53;;
34836;SDS011;21053;50.848;4.652;2023-02-24T17:49:24;24.30;;;5.72;;
34836;SDS011;21053;50.848;4.652;2023-02-24T17:54:20;38.40;;;6.40;;
34836;SDS011;21053;50.848;4.652;2023-02-24T17:56:47;32.88;;;6.70;;
34836;SDS011;21053;50.848;4.652;2023-02-24T17:59:14;30.05;;;5.13;;
34836;SDS011;21053;50.848;4.652;2023-02-24T18:01:43;34.10;;;6.07;;
34836;SDS011;21053;50.848;4.652;2023-02-24T18:09:12;30.58;;;4.97;;
34836;SDS011;21053;50.848;4.652;2023-02-24T18:14:11;31.00;;;4.97;;
34836;SDS011;21053;50.848;4.652;2023-02-24T18:16:39;27.90;;;4.40;;
34836;SDS011;21053;50.848;4.652;2023-02-24T18:19:05;26.67;;;5.57;;
34836;SDS011;21053;50.848;4.652;2023-02-24T18:24:03;25.70;;;5.07;;
34836;SDS011;21053;50.848;4.652;2023-02-24T18:26:29;24.00;;;5.10;;
34836;SDS011;21053;50.848;4.652;2023-02-24T18:28:58;30.20;;;5.03;;
34836;SDS011;21053;50.848;4.652;2023-02-24T18:34:19;32.95;;;4.70;;
34836;SDS011;21053;50.848;4.652;2023-02-24T18:36:45;30.45;;;4.75;;
34836;SDS011;21053;50.848;4.652;2023-02-24T18:41:43;23.77;;;4.65;;
34836;SDS011;21053;50.848;4.652;2023-02-24T18:44:11;24.10;;;4.50;;
34836;SDS011;21053;50.848;4.652;2023-02-24T18:46:40;27.95;;;5.88;;
34836;SDS011;21053;50.848;4.652;2023-02-24T18:49:06;33.47;;;6.40;;
34836;SDS011;21053;50.848;4.652;2023-02-24T18:51:35;24.73;;;5.63;;
34836;SDS011;21053;50.848;4.652;2023-02-24T18:54:03;23.98;;;6.45;;
34836;SDS011;21053;50.848;4.652;2023-02-24T18:56:32;30.35;;;5.38;;
34836;SDS011;21053;50.848;4.652;2023-02-24T18:59:01;32.53;;;5.88;;
34836;SDS011;21053;50.848;4.652;2023-02-24T19:01:29;32.17;;;7.38;;
34836;SDS011;21053;50.848;4.652;2023-02-24T19:03:58;27.83;;;6.50;;
34836;SDS011;21053;50.848;4.652;2023-02-24T19:06:29;28.77;;;5.90;;
34836;SDS011;21053;50.848;4.652;2023-02-24T19:09:05;29.60;;;4.55;;
34836;SDS011;21053;50.848;4.652;2023-02-24T19:11:37;29.33;;;5.30;;
34836;SDS011;21053;50.848;4.652;2023-02-24T19:14:05;38.30;;;6.40;;
34836;SDS011;21053;50.848;4.652;2023-02-24T19:16:34;32.10;;;6.35;;
34836;SDS011;21053;50.848;4.652;2023-02-24T19:19:03;30.02;;;5.35;;
34836;SDS011;21053;50.848;4.652;2023-02-24T19:21:32;19.67;;;4.68;;
34836;SDS011;21053;50.848;4.652;2023-02-24T19:24:02;28.08;;;4.70;;
34836;SDS011;21053;50.848;4.652;2023-02-24T19:29:04;28.08;;;5.47;;
34836;SDS011;21053;50.848;4.652;2023-02-24T19:31:32;26.48;;;4.72;;
34836;SDS011;21053;50.848;4.652;2023-02-24T19:34:03;23.77;;;5.10;;
34836;SDS011;21053;50.848;4.652;2023-02-24T19:36:31;23.88;;;5.53;;
34836;SDS011;21053;50.848;4.652;2023-02-24T19:39:02;23.80;;;4.57;;
34836;SDS011;21053;50.848;4.652;2023-02-24T19:41:28;28.73;;;4.90;;
34836;SDS011;21053;50.848;4.652;2023-02-24T19:43:56;24.85;;;5.38;;
34836;SDS011;21053;50.848;4.652;2023-02-24T19:46:22;23.73;;;4.35;;
34836;SDS011;21053;50.848;4.652;2023-02-24T19:48:51;24.80;;;5.43;;